Time;durP1;ratioP1;P1;durP2;ratioP2;P2;SDS_P1;SDS_P2;PMS_P1;PMS_P2;Temp;Humidity;BMP_temperature;BMP_pressure;BME280_temperature;BME280_humidity;BME280_pressure;Samples;Min_cycle;Max_cycle;Signal;HPM_P1;HPM_P2
2023/04/25 00:01:28;;;;;;;;;;;20.50;99.90;;;;;;5078003;28;19943;-67
2023/04/25 00:03:54;;;;;;;;;;;20.60;99.90;;;;;;5076101;28;19916;-67
2023/04/25 00:06:21;;;;;;;;;;;20.60;99.90;;;;;;5078204;28;19915;-68
2023/04/25 00:08:48;;;;;;;;;;;20.70;99.90;;;;;;5076235;28;19915;-65
2023/04/25 00:11:15;;;;;;;;;;;20.80;99.90;;;;;;5076573;28;19946;-67
2023/04/25 00:13:41;;;;;;;;;;;20.90;99.90;;;;;;5076712;28;19908;-66
2023/04/25 00:16:08;;;;;;;;;;;21.00;99.90;;;;;;5076459;28;19904;-66
2023/04/25 00:18:35;;;;;;;;;;;21.00;99.90;;;;;;5077818;28;20345;-70
2023/04/25 00:21:02;;;;;;;;;;;21.10;99.90;;;;;;5074556;28;20337;-68
2023/04/25 00:23:29;;;;;;;;;;;21.10;99.90;;;;;;5077425;28;19920;-67
2023/04/25 00:25:55;;;;;;;;;;;21.20;99.90;;;;;;5075976;28;19916;-67
2023/04/25 00:28:22;;;;;;;;;;;21.20;99.90;;;;;;5077064;28;19909;-66
2023/04/25 00:30:48;;;;;;;;;;;21.30;99.90;;;;;;5075536;28;20164;-69
2023/04/25 00:33:15;;;;;;;;;;;21.40;99.90;;;;;;5076760;28;20452;-67
2023/04/25 00:35:42;;;;;;;;;;;21.60;99.90;;;;;;5077316;28;19954;-69
2023/04/25 00:38:09;;;;;;;;;;;21.60;99.90;;;;;;5075460;28;20562;-66
2023/04/25 00:40:35;;;;;;;;;;;21.70;99.90;;;;;;5076828;28;19978;-69
2023/04/25 00:43:02;;;;;;;;;;;21.80;99.90;;;;;;5075323;28;20080;-65
2023/04/25 00:45:29;;;;;;;;;;;21.90;99.90;;;;;;5077816;28;19912;-69
2023/04/25 00:48:00;;;;;;;;;;;22.00;99.90;;;;;;5074923;28;20467;-68
2023/04/25 00:50:26;;;;;;;;;;;22.00;99.90;;;;;;5077002;28;19912;-67
2023/04/25 00:52:53;;;;;;;;;;;22.10;99.90;;;;;;5075793;28;20057;-69
2023/04/25 00:55:20;;;;;;;;;;;22.20;99.90;;;;;;5076144;28;20348;-67
2023/04/25 00:57:46;;;;;;;;;;;22.50;99.90;;;;;;5076552;28;19953;-70
2023/04/25 01:00:14;;;;;;;;;;;22.70;99.90;;;;;;5075686;28;20121;-67
2023/04/25 01:02:42;;;;;;;;;;;22.70;99.90;;;;;;5077240;28;19948;-66
2023/04/25 01:05:08;;;;;;;;;;;22.80;99.70;;;;;;5074612;28;20102;-66
2023/04/25 01:07:35;;;;;;;;;;;22.90;99.90;;;;;;5077384;28;19909;-66
2023/04/25 01:10:02;;;;;;;;;;;23.20;99.10;;;;;;5075912;28;19912;-67
2023/04/25 01:12:29;;;;;;;;;;;23.30;99.70;;;;;;5076805;28;20087;-69
2023/04/25 01:14:56;;;;;;;;;;;23.60;98.70;;;;;;5074874;28;19908;-67
2023/04/25 01:17:23;;;;;;;;;;;24.00;97.70;;;;;;5075421;28;20210;-69
2023/04/25 01:19:50;;;;;;;;;;;24.10;96.90;;;;;;5076319;28;20357;-67
2023/04/25 01:22:17;;;;;;;;;;;24.10;96.70;;;;;;5074643;28;19919;-68
2023/04/25 01:24:44;;;;;;;;;;;24.00;97.00;;;;;;5075966;28;19916;-67
2023/04/25 01:27:11;;;;;;;;;;;24.00;97.00;;;;;;5073880;28;20541;-68
2023/04/25 01:29:37;;;;;;;;;;;24.10;97.20;;;;;;5076979;28;19908;-66
2023/04/25 01:32:05;;;;;;;;;;;24.00;97.10;;;;;;5075522;28;20580;-69
2023/04/25 01:34:32;;;;;;;;;;;24.00;97.90;;;;;;5076363;28;19914;-67
2023/04/25 01:37:01;;;;;;;;;;;24.10;96.40;;;;;;5074888;28;19908;-69
2023/04/25 01:39:28;;;;;;;;;;;24.40;96.90;;;;;;5074693;28;20683;-66
2023/04/25 01:41:55;;;;;;;;;;;24.40;95.90;;;;;;5075884;28;20017;-68
2023/04/25 01:44:21;;;;;;;;;;;24.50;95.60;;;;;;5074898;28;20022;-67
2023/04/25 01:46:48;;;;;;;;;;;24.70;96.00;;;;;;5076438;28;20344;-67
2023/04/25 01:49:14;;;;;;;;;;;25.20;96.40;;;;;;5074150;28;19938;-68
2023/04/25 01:51:41;;;;;;;;;;;25.50;96.50;;;;;;5076239;28;19949;-68
2023/04/25 01:54:08;;;;;;;;;;;25.80;95.20;;;;;;5075047;28;19915;-68
2023/04/25 01:56:37;;;;;;;;;;;25.50;94.40;;;;;;5076064;28;20076;-67
2023/04/25 01:59:04;;;;;;;;;;;25.20;94.30;;;;;;5074581;28;19915;-67
2023/04/25 02:01:31;;;;;;;;;;;25.10;95.30;;;;;;5075927;28;20166;-69
2023/04/25 02:03:58;;;;;;;;;;;25.20;94.40;;;;;;5075572;28;19971;-69
2023/04/25 02:06:24;;;;;;;;;;;25.10;95.00;;;;;;5075329;28;19908;-67
2023/04/25 02:08:51;;;;;;;;;;;25.10;94.80;;;;;;5075600;28;19908;-67
2023/04/25 02:11:17;;;;;;;;;;;25.10;94.70;;;;;;5074559;28;20075;-67
2023/04/25 02:13:44;;;;;;;;;;;25.00;95.00;;;;;;5076342;28;20434;-67
2023/04/25 02:16:11;;;;;;;;;;;25.20;94.90;;;;;;5075776;28;20027;-69
2023/04/25 02:18:39;;;;;;;;;;;25.30;94.60;;;;;;5076010;28;19908;-67
2023/04/25 02:21:06;;;;;;;;;;;25.60;94.50;;;;;;5058125;28;20456;-66
2023/04/25 02:23:33;;;;;;;;;;;25.50;94.00;;;;;;5079408;28;20090;-68
2023/04/25 02:26:00;;;;;;;;;;;25.80;94.00;;;;;;5079214;28;19934;-68
2023/04/25 02:28:26;;;;;;;;;;;26.10;93.90;;;;;;5078982;28;20011;-68
2023/04/25 02:30:53;;;;;;;;;;;26.00;93.80;;;;;;5078894;28;20393;-67
2023/04/25 02:33:20;;;;;;;;;;;26.10;94.20;;;;;;5078430;28;20251;-68
2023/04/25 02:35:47;;;;;;;;;;;26.70;93.20;;;;;;5079547;28;19909;-68
2023/04/25 02:38:14;;;;;;;;;;;27.00;91.80;;;;;;5078731;28;19957;-67
2023/04/25 02:40:41;;;;;;;;;;;27.80;91.60;;;;;;5079225;28;20391;-67
2023/04/25 02:43:08;;;;;;;;;;;27.90;90.40;;;;;;5077738;28;20205;-69
2023/04/25 02:45:35;;;;;;;;;;;27.60;90.60;;;;;;5079317;28;19943;-68
2023/04/25 02:48:02;;;;;;;;;;;27.40;90.80;;;;;;5079065;28;19931;-67
2023/04/25 02:50:29;;;;;;;;;;;27.30;92.10;;;;;;5077706;28;19912;-66
2023/04/25 02:52:55;;;;;;;;;;;28.50;91.30;;;;;;5078412;28;20368;-67
2023/04/25 02:55:22;;;;;;;;;;;30.70;87.00;;;;;;5077810;28;20107;-70
2023/04/25 02:57:49;;;;;;;;;;;31.60;82.30;;;;;;5079301;28;19923;-68
2023/04/25 03:00:15;;;;;;;;;;;32.70;79.70;;;;;;5077232;28;19987;-67
2023/04/25 03:02:42;;;;;;;;;;;33.40;78.30;;;;;;5078319;28;20020;-69
2023/04/25 03:05:09;;;;;;;;;;;34.50;77.50;;;;;;5077912;28;19922;-66
2023/04/25 03:07:36;;;;;;;;;;;34.90;73.60;;;;;;5078593;28;19908;-66
2023/04/25 03:10:02;;;;;;;;;;;36.10;72.30;;;;;;5078739;28;20271;-66
2023/04/25 03:12:29;;;;;;;;;;;36.70;70.30;;;;;;5077029;28;20331;-67
2023/04/25 03:14:55;;;;;;;;;;;37.70;67.80;;;;;;5078939;28;19953;-68
2023/04/25 03:17:22;;;;;;;;;;;38.10;65.70;;;;;;5078162;28;19934;-66
2023/04/25 03:19:49;;;;;;;;;;;37.80;64.50;;;;;;5078517;28;20295;-66
2023/04/25 03:22:15;;;;;;;;;;;37.60;64.40;;;;;;5076744;28;19908;-68
2023/04/25 03:24:42;;;;;;;;;;;37.20;64.70;;;;;;5078798;28;19916;-68
2023/04/25 03:27:09;;;;;;;;;;;37.10;65.10;;;;;;5078547;28;19908;-68
2023/04/25 03:29:36;;;;;;;;;;;36.90;64.90;;;;;;5078096;28;19912;-66
2023/04/25 03:32:02;;;;;;;;;;;37.30;64.50;;;;;;5076795;28;20499;-66
2023/04/25 03:34:29;;;;;;;;;;;38.10;63.60;;;;;;5077209;28;19959;-68
2023/04/25 03:36:55;;;;;;;;;;;38.50;63.30;;;;;;5078591;28;19951;-67
2023/04/25 03:39:22;;;;;;;;;;;38.70;62.70;;;;;;5076916;28;19920;-67
2023/04/25 03:41:49;;;;;;;;;;;38.40;61.50;;;;;;5077727;28;20057;-69
2023/04/25 03:44:15;;;;;;;;;;;37.60;63.30;;;;;;5077513;28;19923;-68
2023/04/25 03:46:42;;;;;;;;;;;37.70;63.70;;;;;;5078046;28;19908;-66
2023/04/25 03:49:08;;;;;;;;;;;38.10;62.00;;;;;;5077459;28;19908;-67
2023/04/25 03:51:35;;;;;;;;;;;37.40;63.90;;;;;;5076901;28;19904;-68
2023/04/25 03:54:02;;;;;;;;;;;37.60;63.40;;;;;;5076746;28;19908;-69
2023/04/25 03:56:28;;;;;;;;;;;38.20;62.70;;;;;;5077758;28;20349;-69
2023/04/25 03:58:55;;;;;;;;;;;38.70;62.70;;;;;;5077263;28;19987;-67
2023/04/25 04:01:21;;;;;;;;;;;38.70;62.30;;;;;;5076474;28;20280;-67
2023/04/25 04:03:48;;;;;;;;;;;38.50;62.30;;;;;;5076827;28;20038;-71
2023/04/25 04:06:15;;;;;;;;;;;38.50;61.80;;;;;;5077803;28;19912;-68
2023/04/25 04:08:41;;;;;;;;;;;38.30;61.90;;;;;;5076809;28;19908;-68
2023/04/25 04:11:08;;;;;;;;;;;38.30;62.10;;;;;;5076263;28;19915;-69
2023/04/25 04:13:34;;;;;;;;;;;38.30;61.60;;;;;;5077235;28;19953;-69
2023/04/25 04:16:01;;;;;;;;;;;37.60;63.00;;;;;;5076821;28;19937;-70
2023/04/25 04:18:28;;;;;;;;;;;38.00;62.10;;;;;;5076841;28;19908;-68
2023/04/25 04:20:54;;;;;;;;;;;38.00;61.60;;;;;;5076295;28;19918;-67
2023/04/25 04:23:22;;;;;;;;;;;37.90;62.10;;;;;;5076857;28;19966;-68
2023/04/25 04:25:49;;;;;;;;;;;37.60;62.40;;;;;;5076823;28;20003;-68
2023/04/25 04:28:16;;;;;;;;;;;38.40;61.80;;;;;;5076967;28;20196;-66
2023/04/25 04:30:46;;;;;;;;;;;38.50;61.40;;;;;;5057991;28;20352;-66
2023/04/25 04:33:14;;;;;;;;;;;38.90;60.90;;;;;;5057729;28;20560;-66
2023/04/25 04:35:41;;;;;;;;;;;37.20;62.70;;;;;;5076783;28;20011;-67
2023/04/25 04:38:08;;;;;;;;;;;36.60;62.00;;;;;;5075287;28;19915;-67
2023/04/25 04:40:34;;;;;;;;;;;36.40;64.20;;;;;;5058518;28;19943;-69
2023/04/25 04:43:01;;;;;;;;;;;36.80;63.40;;;;;;5075327;28;19971;-67
2023/04/25 04:45:28;;;;;;;;;;;37.50;62.60;;;;;;5076494;28;19912;-68
2023/04/25 04:47:55;;;;;;;;;;;36.90;62.50;;;;;;5077093;28;19912;-69
2023/04/25 04:50:21;;;;;;;;;;;37.20;62.30;;;;;;5076139;28;20049;-69
2023/04/25 04:52:48;;;;;;;;;;;36.80;63.20;;;;;;5077184;28;19908;-67
2023/04/25 04:55:14;;;;;;;;;;;36.80;62.80;;;;;;5074749;28;20361;-70
2023/04/25 04:57:41;;;;;;;;;;;37.00;62.70;;;;;;5076722;28;19909;-67
2023/04/25 05:00:10;;;;;;;;;;;36.80;62.60;;;;;;5075370;28;19990;-69
2023/04/25 05:02:38;;;;;;;;;;;36.80;62.60;;;;;;5076352;28;19912;-67
2023/04/25 05:05:05;;;;;;;;;;;36.90;62.70;;;;;;5074956;28;19924;-68
2023/04/25 05:07:32;;;;;;;;;;;37.50;62.40;;;;;;5075796;28;19994;-69
2023/04/25 05:09:58;;;;;;;;;;;37.70;62.50;;;;;;5076698;28;19914;-67
2023/04/25 05:12:25;;;;;;;;;;;37.10;62.60;;;;;;5076290;28;19916;-70
2023/04/25 05:14:52;;;;;;;;;;;37.60;62.50;;;;;;5076203;28;19912;-67
2023/04/25 05:17:18;;;;;;;;;;;37.60;61.70;;;;;;5074985;28;20102;-67
2023/04/25 05:19:45;;;;;;;;;;;37.10;62.70;;;;;;5076371;28;19918;-67
2023/04/25 05:22:11;;;;;;;;;;;37.10;63.50;;;;;;5075376;28;19957;-71
2023/04/25 05:24:38;;;;;;;;;;;36.90;63.10;;;;;;5075322;28;19920;-68
2023/04/25 05:27:05;;;;;;;;;;;36.90;63.30;;;;;;5074816;28;19915;-70
2023/04/25 05:29:32;;;;;;;;;;;36.60;63.00;;;;;;5076049;28;19953;-68
2023/04/25 05:31:58;;;;;;;;;;;36.80;64.10;;;;;;5076609;28;20339;-71
2023/04/25 05:34:25;;;;;;;;;;;37.20;63.00;;;;;;5075513;28;19919;-67
2023/04/25 05:36:52;;;;;;;;;;;36.80;62.60;;;;;;5075461;28;19908;-68
2023/04/25 05:39:19;;;;;;;;;;;36.50;63.60;;;;;;5074611;28;19912;-69
2023/04/25 05:41:45;;;;;;;;;;;36.30;63.60;;;;;;5076068;28;19912;-67
2023/04/25 05:44:12;;;;;;;;;;;35.10;65.90;;;;;;5075091;28;19916;-67
2023/04/25 05:46:38;;;;;;;;;;;35.20;65.90;;;;;;5074984;28;19908;-69
2023/04/25 05:49:05;;;;;;;;;;;35.40;65.20;;;;;;5075766;28;19908;-70
2023/04/25 05:51:32;;;;;;;;;;;35.60;64.70;;;;;;5075704;28;19908;-68
2023/04/25 05:53:58;;;;;;;;;;;35.90;64.40;;;;;;5075900;28;20000;-67
2023/04/25 05:56:25;;;;;;;;;;;35.60;64.80;;;;;;5076438;28;19913;-67
2023/04/25 05:58:52;;;;;;;;;;;35.30;65.40;;;;;;5080019;28;20087;-67
2023/04/25 06:01:18;;;;;;;;;;;35.20;65.50;;;;;;5078992;28;20379;-68
2023/04/25 06:03:46;;;;;;;;;;;35.20;66.30;;;;;;5079193;28;19916;-67
2023/04/25 06:06:12;;;;;;;;;;;34.90;65.40;;;;;;5078623;28;20009;-69
2023/04/25 06:08:39;;;;;;;;;;;34.80;65.70;;;;;;5079637;28;19912;-67
2023/04/25 06:11:06;;;;;;;;;;;34.90;65.90;;;;;;5080010;28;19930;-69
2023/04/25 06:13:33;;;;;;;;;;;34.60;65.50;;;;;;5079059;28;20071;-67
2023/04/25 06:15:59;;;;;;;;;;;34.00;66.80;;;;;;5079113;28;19908;-67
2023/04/25 06:18:26;;;;;;;;;;;33.50;67.30;;;;;;5078125;28;19954;-67
2023/04/25 06:20:53;;;;;;;;;;;33.00;68.80;;;;;;5079414;28;19934;-66
2023/04/25 06:23:19;;;;;;;;;;;32.40;68.70;;;;;;5078597;28;19974;-67
2023/04/25 06:25:46;;;;;;;;;;;32.00;70.20;;;;;;5078765;28;19912;-67
2023/04/25 06:28:13;;;;;;;;;;;31.80;71.50;;;;;;5079227;28;19908;-69
2023/04/25 06:30:40;;;;;;;;;;;31.70;69.90;;;;;;5078916;28;20020;-71
2023/04/25 06:33:08;;;;;;;;;;;30.70;71.30;;;;;;5062489;28;20237;-67
2023/04/25 06:35:35;;;;;;;;;;;30.50;71.80;;;;;;5078432;28;19908;-66
2023/04/25 06:38:01;;;;;;;;;;;30.30;72.90;;;;;;5078872;28;19908;-71
2023/04/25 06:40:28;;;;;;;;;;;30.00;72.60;;;;;;5077683;28;19920;-68
2023/04/25 06:42:55;;;;;;;;;;;29.90;72.70;;;;;;5078971;28;19947;-68
2023/04/25 06:45:22;;;;;;;;;;;29.10;74.00;;;;;;5078235;28;19916;-66
2023/04/25 06:47:48;;;;;;;;;;;28.40;76.10;;;;;;5059945;28;19908;-69
2023/04/25 06:50:15;;;;;;;;;;;27.50;77.50;;;;;;5079012;28;19908;-70
2023/04/25 06:52:41;;;;;;;;;;;26.40;80.10;;;;;;5079366;28;20352;-69
2023/04/25 06:55:08;;;;;;;;;;;25.70;82.30;;;;;;5078617;28;20653;-67
2023/04/25 06:57:35;;;;;;;;;;;25.20;83.90;;;;;;5077829;28;19912;-68
2023/04/25 07:00:05;;;;;;;;;;;24.60;85.70;;;;;;5077818;28;20107;-67
2023/04/25 07:02:31;;;;;;;;;;;24.30;87.40;;;;;;5077961;28;20390;-67
2023/04/25 07:04:59;;;;;;;;;;;23.90;88.50;;;;;;5078127;28;19916;-70
2023/04/25 07:07:26;;;;;;;;;;;23.70;89.20;;;;;;5077633;28;20503;-67
2023/04/25 07:09:53;;;;;;;;;;;23.40;90.00;;;;;;5078393;28;19915;-67
2023/04/25 07:12:20;;;;;;;;;;;23.20;90.30;;;;;;5078050;28;19908;-67
2023/04/25 07:14:46;;;;;;;;;;;23.00;91.10;;;;;;5078498;28;19904;-69
2023/04/25 07:17:13;;;;;;;;;;;22.80;91.20;;;;;;5078726;28;19908;-67
2023/04/25 07:19:40;;;;;;;;;;;22.70;91.60;;;;;;5077884;28;20225;-67
2023/04/25 07:22:06;;;;;;;;;;;22.60;92.20;;;;;;5077474;28;19918;-66
2023/04/25 07:24:33;;;;;;;;;;;22.40;92.30;;;;;;5077540;28;19973;-70
2023/04/25 07:27:01;;;;;;;;;;;22.30;92.50;;;;;;5077915;28;20002;-67
2023/04/25 07:29:28;;;;;;;;;;;22.10;93.10;;;;;;5076753;28;19908;-66
2023/04/25 07:31:54;;;;;;;;;;;22.00;93.50;;;;;;5078056;28;19919;-66
2023/04/25 07:34:21;;;;;;;;;;;21.90;93.70;;;;;;5077604;28;19908;-69
2023/04/25 07:36:47;;;;;;;;;;;21.80;94.30;;;;;;5078476;28;20011;-67
2023/04/25 07:39:14;;;;;;;;;;;21.80;94.80;;;;;;5076895;28;19920;-69
2023/04/25 07:41:41;;;;;;;;;;;21.60;95.20;;;;;;5077077;28;19955;-67
2023/04/25 07:44:07;;;;;;;;;;;21.50;95.60;;;;;;5077576;28;19916;-66
2023/04/25 07:46:34;;;;;;;;;;;21.30;95.90;;;;;;5077043;28;19912;-69
2023/04/25 07:49:01;;;;;;;;;;;21.30;96.10;;;;;;5077422;28;19908;-67
2023/04/25 07:51:27;;;;;;;;;;;21.20;96.50;;;;;;5076258;28;19908;-66
2023/04/25 07:53:54;;;;;;;;;;;21.10;96.80;;;;;;5078584;28;19908;-67
2023/04/25 07:56:21;;;;;;;;;;;21.10;97.20;;;;;;5077568;28;19908;-67
2023/04/25 07:58:48;;;;;;;;;;;21.00;97.40;;;;;;5077231;28;19912;-67
2023/04/25 08:01:14;;;;;;;;;;;21.00;97.60;;;;;;5076411;28;20734;-70
2023/04/25 08:03:41;;;;;;;;;;;21.00;98.00;;;;;;5076761;28;19944;-65
2023/04/25 08:06:08;;;;;;;;;;;21.00;98.20;;;;;;5077605;28;19908;-69
2023/04/25 08:08:34;;;;;;;;;;;21.00;98.40;;;;;;5075548;28;19910;-69
2023/04/25 08:11:01;;;;;;;;;;;21.00;98.70;;;;;;5076977;28;19908;-67
2023/04/25 08:13:28;;;;;;;;;;;20.90;99.00;;;;;;5076550;28;19908;-66
2023/04/25 08:15:54;;;;;;;;;;;20.90;99.50;;;;;;5077570;28;20017;-66
2023/04/25 08:18:21;;;;;;;;;;;20.80;99.80;;;;;;5075754;28;19908;-65
2023/04/25 08:20:48;;;;;;;;;;;20.80;99.90;;;;;;5075967;28;19908;-67
2023/04/25 08:23:14;;;;;;;;;;;20.80;99.90;;;;;;5077308;28;19912;-69
2023/04/25 08:25:41;;;;;;;;;;;20.80;99.90;;;;;;5075775;28;19920;-70
2023/04/25 08:28:08;;;;;;;;;;;20.70;99.90;;;;;;5077817;28;19912;-66
2023/04/25 08:30:34;;;;;;;;;;;20.60;99.90;;;;;;5074350;28;20609;-67
2023/04/25 08:33:01;;;;;;;;;;;20.60;99.90;;;;;;5077663;28;19908;-65
2023/04/25 08:35:28;;;;;;;;;;;20.50;99.90;;;;;;5074032;28;19916;-68
2023/04/25 08:37:54;;;;;;;;;;;20.50;99.90;;;;;;5075419;28;19909;-67
2023/04/25 08:40:28;;;;;;;;;;;20.50;99.90;;;;;;5076031;28;19920;-70
2023/04/25 08:42:55;;;;;;;;;;;20.50;99.90;;;;;;5076924;28;19984;-66
2023/04/25 08:45:22;;;;;;;;;;;20.40;99.90;;;;;;5076094;28;20058;-69
2023/04/25 08:47:51;;;;;;;;;;;20.40;99.90;;;;;;5075871;28;20020;-67
2023/04/25 08:50:21;;;;;;;;;;;20.40;99.90;;;;;;5059021;28;20356;-67
2023/04/25 08:52:52;;;;;;;;;;;20.40;99.90;;;;;;5074664;28;19927;-66
2023/04/25 08:55:19;;;;;;;;;;;20.40;99.90;;;;;;5077085;28;20015;-66
2023/04/25 08:57:46;;;;;;;;;;;20.40;99.90;;;;;;5075336;28;19908;-66
2023/04/25 09:00:13;;;;;;;;;;;20.40;99.90;;;;;;5076987;28;19947;-65
2023/04/25 09:02:40;;;;;;;;;;;20.40;99.90;;;;;;5055790;28;19951;-69
2023/04/25 09:05:09;;;;;;;;;;;20.30;99.90;;;;;;5077613;28;20411;-67
2023/04/25 09:07:36;;;;;;;;;;;20.30;99.90;;;;;;5075497;28;19908;-67
2023/04/25 09:10:03;;;;;;;;;;;20.30;99.90;;;;;;5077204;28;20552;-67
2023/04/25 09:12:30;;;;;;;;;;;20.30;99.90;;;;;;5075399;28;19908;-66
2023/04/25 09:15:03;;;;;;;;;;;20.20;99.90;;;;;;5074615;28;20318;-68
2023/04/25 09:17:30;;;;;;;;;;;20.20;99.90;;;;;;5074999;28;20006;-66
2023/04/25 09:20:06;;;;;;;;;;;20.20;99.90;;;;;;5056583;28;19908;-67
2023/04/25 09:22:33;;;;;;;;;;;20.30;99.90;;;;;;5075539;28;19912;-67
2023/04/25 09:25:02;;;;;;;;;;;20.20;99.90;;;;;;5074540;28;19961;-66
2023/04/25 09:27:29;;;;;;;;;;;20.30;99.90;;;;;;5074476;28;19958;-66
2023/04/25 09:30:02;;;;;;;;;;;20.20;99.90;;;;;;5074879;28;19908;-66
2023/04/25 09:32:29;;;;;;;;;;;20.20;99.90;;;;;;5075031;28;20357;-68
2023/04/25 09:34:56;;;;;;;;;;;20.20;99.90;;;;;;5074897;28;19920;-65
2023/04/25 09:37:24;;;;;;;;;;;20.20;99.90;;;;;;5076331;28;20281;-66
2023/04/25 09:39:55;;;;;;;;;;;20.20;99.90;;;;;;5071139;28;19920;-68
2023/04/25 09:42:23;;;;;;;;;;;20.10;99.90;;;;;;5076998;28;20010;-67
2023/04/25 09:44:51;;;;;;;;;;;20.10;99.90;;;;;;5074076;28;19917;-66
2023/04/25 09:47:21;;;;;;;;;;;20.00;99.90;;;;;;5076654;28;19908;-67
2023/04/25 09:49:48;;;;;;;;;;;20.00;99.90;;;;;;5073049;28;20344;-68
2023/04/25 09:52:16;;;;;;;;;;;20.00;99.90;;;;;;5077157;28;19994;-65
2023/04/25 09:54:44;;;;;;;;;;;19.90;99.90;;;;;;5074628;28;19908;-67
2023/04/25 09:57:16;;;;;;;;;;;19.90;99.90;;;;;;5076734;28;19915;-68
2023/04/25 09:59:44;;;;;;;;;;;19.90;99.90;;;;;;5074813;28;19916;-69
2023/04/25 10:02:12;;;;;;;;;;;19.90;99.90;;;;;;5076620;28;19908;-69
2023/04/25 10:04:39;;;;;;;;;;;19.90;99.90;;;;;;5075379;28;19916;-64
2023/04/25 10:07:06;;;;;;;;;;;19.90;99.90;;;;;;5074601;28;19912;-65
2023/04/25 10:09:33;;;;;;;;;;;19.90;99.90;;;;;;5075760;28;19908;-67
2023/04/25 10:12:00;;;;;;;;;;;19.90;99.90;;;;;;5074968;28;19992;-68
2023/04/25 10:14:27;;;;;;;;;;;19.80;99.90;;;;;;5076838;28;19914;-65
2023/04/25 10:16:55;;;;;;;;;;;19.80;99.90;;;;;;5073095;28;19931;-67
2023/04/25 10:19:22;;;;;;;;;;;19.80;99.90;;;;;;5076535;28;19916;-68
2023/04/25 10:22:09;;;;;;;;;;;19.70;99.90;;;;;;5074413;28;20368;-68
2023/04/25 10:24:37;;;;;;;;;;;19.70;99.90;;;;;;5075326;28;19923;-69
2023/04/25 10:27:05;;;;;;;;;;;19.80;99.90;;;;;;5056284;28;19981;-67
2023/04/25 10:29:32;;;;;;;;;;;19.70;99.90;;;;;;5076227;28;19908;-67
2023/04/25 10:31:58;;;;;;;;;;;19.70;99.90;;;;;;5073545;28;19973;-68
2023/04/25 10:34:38;;;;;;;;;;;19.70;99.90;;;;;;5076088;28;19912;-69
2023/04/25 10:37:06;;;;;;;;;;;19.70;99.90;;;;;;5074615;28;19912;-67
2023/04/25 10:39:34;;;;;;;;;;;19.60;99.90;;;;;;5075501;28;19913;-70
2023/04/25 10:42:02;;;;;;;;;;;19.60;99.90;;;;;;5075605;28;19912;-66
2023/04/25 10:44:32;;;;;;;;;;;19.60;99.90;;;;;;5080429;28;19935;-66
2023/04/25 10:47:00;;;;;;;;;;;19.60;99.90;;;;;;5076951;28;20697;-67
2023/04/25 10:49:30;;;;;;;;;;;19.60;99.90;;;;;;5080651;28;19914;-66
2023/04/25 10:52:17;;;;;;;;;;;19.60;99.90;;;;;;5076704;28;20289;-70
2023/04/25 10:54:47;;;;;;;;;;;19.50;99.90;;;;;;5078454;28;19908;-69
2023/04/25 10:57:30;;;;;;;;;;;19.50;99.90;;;;;;5076703;28;19933;-67
2023/04/25 11:00:00;;;;;;;;;;;19.40;99.90;;;;;;5076486;28;20135;-68
2023/04/25 11:02:28;;;;;;;;;;;19.40;99.90;;;;;;5079498;28;19909;-67
2023/04/25 11:04:55;;;;;;;;;;;19.30;99.90;;;;;;5077412;28;19920;-68
2023/04/25 11:07:35;;;;;;;;;;;19.40;99.90;;;;;;5079082;28;19908;-67
2023/04/25 11:10:03;;;;;;;;;;;19.20;99.90;;;;;;5075523;28;20361;-68
2023/04/25 11:12:31;;;;;;;;;;;19.20;99.90;;;;;;5079251;28;19908;-69
2023/04/25 11:15:05;;;;;;;;;;;19.10;99.90;;;;;;5077759;28;19916;-69
2023/04/25 11:17:32;;;;;;;;;;;19.10;99.90;;;;;;5079035;28;19908;-66
2023/04/25 11:20:00;;;;;;;;;;;19.10;99.90;;;;;;5076642;28;20353;-72
2023/04/25 11:22:28;;;;;;;;;;;19.10;99.90;;;;;;5078887;28;19908;-69
2023/04/25 11:24:55;;;;;;;;;;;19.10;99.90;;;;;;5078154;28;19916;-68
2023/04/25 11:27:22;;;;;;;;;;;19.10;99.90;;;;;;5078542;28;19973;-67
2023/04/25 11:29:48;;;;;;;;;;;19.10;99.90;;;;;;5076323;28;20166;-68
2023/04/25 11:32:16;;;;;;;;;;;19.20;99.90;;;;;;5076958;28;20273;-69
2023/04/25 11:34:45;;;;;;;;;;;19.10;99.90;;;;;;5060339;28;19908;-69
2023/04/25 11:37:14;;;;;;;;;;;19.10;99.90;;;;;;5075975;28;19943;-70
2023/04/25 11:39:45;;;;;;;;;;;19.10;99.90;;;;;;5078383;28;19989;-67
2023/04/25 11:42:12;;;;;;;;;;;19.10;99.90;;;;;;5076200;28;19959;-68
2023/04/25 11:44:40;;;;;;;;;;;19.00;99.90;;;;;;5078103;28;19947;-66
2023/04/25 11:47:07;;;;;;;;;;;19.00;99.90;;;;;;5074994;28;20306;-68
2023/04/25 11:49:34;;;;;;;;;;;19.00;99.90;;;;;;5060086;28;19912;-66
2023/04/25 11:52:01;;;;;;;;;;;19.00;99.90;;;;;;5077283;28;19943;-68
2023/04/25 11:54:28;;;;;;;;;;;19.00;99.90;;;;;;5076273;28;19915;-69
2023/04/25 11:56:54;;;;;;;;;;;18.90;99.90;;;;;;5077271;28;19916;-66
2023/04/25 11:59:25;;;;;;;;;;;18.80;99.90;;;;;;5075462;28;19908;-66
2023/04/25 12:01:52;;;;;;;;;;;18.80;99.90;;;;;;5078229;28;19908;-69
2023/04/25 12:04:22;;;;;;;;;;;18.80;99.90;;;;;;5076222;28;19951;-69
2023/04/25 12:06:55;;;;;;;;;;;18.80;99.90;;;;;;5077678;28;19915;-68
2023/04/25 12:09:31;;;;;;;;;;;18.80;99.90;;;;;;5076011;28;19912;-67
2023/04/25 12:11:59;;;;;;;;;;;18.80;99.90;;;;;;5077310;28;20391;-69
2023/04/25 12:14:32;;;;;;;;;;;18.70;99.90;;;;;;5075728;28;19908;-66
2023/04/25 12:17:00;;;;;;;;;;;18.80;99.90;;;;;;5077198;28;19909;-66
2023/04/25 12:19:32;;;;;;;;;;;18.80;99.90;;;;;;5075530;28;19915;-71
2023/04/25 12:22:00;;;;;;;;;;;18.70;99.90;;;;;;5076952;28;19908;-65
2023/04/25 12:24:27;;;;;;;;;;;18.70;99.90;;;;;;5057542;28;20069;-65
2023/04/25 12:26:59;;;;;;;;;;;18.70;99.90;;;;;;5077612;28;19955;-68
2023/04/25 12:29:27;;;;;;;;;;;18.70;99.90;;;;;;5075945;28;19912;-68
2023/04/25 12:31:54;;;;;;;;;;;18.60;99.90;;;;;;5077899;28;19914;-67
2023/04/25 12:34:22;;;;;;;;;;;18.60;99.90;;;;;;5075951;28;19956;-67
2023/04/25 12:36:49;;;;;;;;;;;18.50;99.90;;;;;;5077102;28;19954;-66
2023/04/25 12:39:21;;;;;;;;;;;18.50;99.90;;;;;;5074356;28;19920;-66
2023/04/25 12:41:49;;;;;;;;;;;18.50;99.90;;;;;;5077817;28;20280;-66
2023/04/25 12:44:16;;;;;;;;;;;18.50;99.90;;;;;;5074736;28;20390;-69
2023/04/25 12:46:43;;;;;;;;;;;18.40;99.90;;;;;;5077384;28;19915;-69
2023/04/25 12:49:10;;;;;;;;;;;18.50;99.90;;;;;;5076311;28;19914;-68
2023/04/25 12:51:37;;;;;;;;;;;18.50;99.90;;;;;;5076323;28;19908;-68
2023/04/25 12:54:04;;;;;;;;;;;18.50;99.90;;;;;;5076457;28;20272;-67
2023/04/25 12:56:31;;;;;;;;;;;18.40;99.90;;;;;;5075330;28;20003;-69
2023/04/25 12:58:58;;;;;;;;;;;18.40;99.90;;;;;;5078212;28;19912;-70
2023/04/25 13:01:26;;;;;;;;;;;18.30;99.90;;;;;;5075244;28;20002;-70
2023/04/25 13:03:53;;;;;;;;;;;18.30;99.90;;;;;;5077384;28;19924;-67
2023/04/25 13:06:20;;;;;;;;;;;18.30;99.90;;;;;;5074409;28;19908;-69
2023/04/25 13:08:47;;;;;;;;;;;18.30;99.90;;;;;;5077146;28;20353;-70
2023/04/25 13:11:14;;;;;;;;;;;18.30;99.90;;;;;;5075690;28;19951;-69
2023/04/25 13:13:42;;;;;;;;;;;18.30;99.90;;;;;;5075950;28;20266;-67
2023/04/25 13:16:08;;;;;;;;;;;18.20;99.90;;;;;;5076235;28;20042;-67
2023/04/25 13:18:35;;;;;;;;;;;18.20;99.90;;;;;;5075199;28;19912;-66
2023/04/25 13:21:03;;;;;;;;;;;18.20;99.90;;;;;;5077253;28;19915;-68
2023/04/25 13:23:30;;;;;;;;;;;18.10;99.90;;;;;;5076041;28;20347;-66
2023/04/25 13:25:57;;;;;;;;;;;18.00;99.90;;;;;;5076802;28;19916;-66
2023/04/25 13:28:27;;;;;;;;;;;18.10;99.90;;;;;;5074387;28;19908;-67
2023/04/25 13:30:54;;;;;;;;;;;18.00;99.90;;;;;;5076284;28;19953;-66
2023/04/25 13:33:20;;;;;;;;;;;18.00;99.90;;;;;;5074787;28;19948;-66
2023/04/25 13:35:56;;;;;;;;;;;17.90;99.90;;;;;;5076071;28;19908;-66
2023/04/25 13:38:23;;;;;;;;;;;17.90;99.90;;;;;;5074656;28;19908;-68
2023/04/25 13:40:52;;;;;;;;;;;17.80;99.90;;;;;;5076466;28;20230;-65
2023/04/25 13:43:24;;;;;;;;;;;17.70;99.90;;;;;;5075849;28;20339;-66
2023/04/25 13:45:51;;;;;;;;;;;17.70;99.90;;;;;;5076618;28;19973;-67
2023/04/25 13:48:19;;;;;;;;;;;17.60;99.90;;;;;;5075456;28;19908;-68
2023/04/25 13:50:45;;;;;;;;;;;17.60;99.90;;;;;;5074868;28;20002;-65
2023/04/25 13:53:12;;;;;;;;;;;17.60;99.90;;;;;;5075584;28;19999;-68
2023/04/25 13:55:39;;;;;;;;;;;17.50;99.90;;;;;;5074782;28;19908;-69
2023/04/25 13:58:09;;;;;;;;;;;17.50;99.90;;;;;;5076994;28;19915;-67
2023/04/25 14:00:38;;;;;;;;;;;17.50;99.90;;;;;;5074395;28;19915;-67
2023/04/25 14:03:06;;;;;;;;;;;17.50;99.90;;;;;;5077256;28;19912;-68
2023/04/25 14:05:37;;;;;;;;;;;17.50;99.90;;;;;;5074459;28;19942;-66
2023/04/25 14:08:05;;;;;;;;;;;17.40;99.90;;;;;;5076897;28;19908;-66
2023/04/25 14:10:32;;;;;;;;;;;17.40;99.90;;;;;;5074009;28;19908;-65
2023/04/25 14:12:59;;;;;;;;;;;17.40;99.90;;;;;;5076007;28;19908;-68
2023/04/25 14:15:25;;;;;;;;;;;17.30;99.90;;;;;;5075437;28;19912;-68
2023/04/25 14:17:52;;;;;;;;;;;17.30;99.90;;;;;;5078379;28;19915;-69